sensor_id;sensor_type;location;lat;lon;timestamp;pressure;altitude;pressure_sealevel;temperature;humidity
12722;BME280;6425;50.316;8.114;2023-12-07T00:00:00;994;;;2.5;99.9
12722;BME280;6425;50.316;8.114;2023-12-07T00:03:00;994;;;2.5;98.2
12722;BME280;6425;50.316;8.114;2023-12-07T00:06:00;994;;;2.4;97.4
12722;BME280;6425;50.316;8.114;2023-12-07T00:09:00;994;;;2.6;97
12722;BME280;6425;50.316;8.114;2023-12-07T00:12:00;994;;;2.9;95.5
12722;BME280;6425;50.316;8.114;2023-12-07T00:15:00;994;;;3.2;94.1
12722;BME280;6425;50.316;8.114;2023-12-07T00:18:00;994;;;3.3;92.4
12722;BME280;6425;50.316;8.114;2023-12-07T00:21:00;994;;;3.4;90.5
12722;BME280;6425;50.316;8.114;2023-12-07T00:24:00;994;;;3.4;89.2
12722;BME280;6425;50.316;8.114;2023-12-07T00:27:00;994;;;3.3;89.2
12722;BME280;6425;50.316;8.114;2023-12-07T00:30:00;994;;;3;89.8
12722;BME280;6425;50.316;8.114;2023-12-07T00:33:00;994;;;3.1;90.6
12722;BME280;6425;50.316;8.114;2023-12-07T00:36:00;994;;;2.7;91.1
12722;BME280;6425;50.316;8.114;2023-12-07T00:39:00;994;;;2.5;93
12722;BME280;6425;50.316;8.114;2023-12-07T00:42:00;994;;;2.6;93.6
12722;BME280;6425;50.316;8.114;2023-12-07T00:45:00;994;;;2.7;93.9
12722;BME280;6425;50.316;8.114;2023-12-07T00:48:00;994;;;2.2;94.8
12722;BME280;6425;50.316;8.114;2023-12-07T00:51:00;994;;;2;96.7
12722;BME280;6425;50.316;8.114;2023-12-07T00:54:00;994;;;2.3;97
12722;BME280;6425;50.316;8.114;2023-12-07T00:57:00;994;;;2.5;96
12722;BME280;6425;50.316;8.114;2023-12-07T01:00:00;994;;;2.4;95.1
12722;BME280;6425;50.316;8.114;2023-12-07T01:03:00;994;;;2.4;94.6
12722;BME280;6425;50.316;8.114;2023-12-07T01:06:00;994;;;2.4;93.9
12722;BME280;6425;50.316;8.114;2023-12-07T01:09:00;994;;;2.4;93.4
12722;BME280;6425;50.316;8.114;2023-12-07T01:12:00;994;;;2.5;92.7
12722;BME280;6425;50.316;8.114;2023-12-07T01:15:00;994;;;2.6;91.8
12722;BME280;6425;50.316;8.114;2023-12-07T01:18:00;994;;;2.5;91
12722;BME280;6425;50.316;8.114;2023-12-07T01:21:00;994;;;2.5;90.2
12722;BME280;6425;50.316;8.114;2023-12-07T01:24:00;994;;;2.2;89.9
12722;BME280;6425;50.316;8.114;2023-12-07T01:27:00;994;;;1.9;91.3
12722;BME280;6425;50.316;8.114;2023-12-07T01:30:00;994;;;1.5;93.5
12722;BME280;6425;50.316;8.114;2023-12-07T01:33:00;994;;;1.6;95.3
12722;BME280;6425;50.316;8.114;2023-12-07T01:36:00;994;;;1.9;95.2
12722;BME280;6425;50.316;8.114;2023-12-07T01:39:00;994;;;2;94.3
12722;BME280;6425;50.316;8.114;2023-12-07T01:42:00;994;;;1.7;93.2
12722;BME280;6425;50.316;8.114;2023-12-07T01:45:00;994;;;1.5;94.1
12722;BME280;6425;50.316;8.114;2023-12-07T01:48:00;994;;;1.4;95.1
12722;BME280;6425;50.316;8.114;2023-12-07T01:51:00;994;;;1.6;95.6
12722;BME280;6425;50.316;8.114;2023-12-07T01:54:00;994;;;1.5;93.7
12722;BME280;6425;50.316;8.114;2023-12-07T01:57:00;994;;;1.3;94.6
12722;BME280;6425;50.316;8.114;2023-12-07T02:00:00;994;;;1.3;95.4
12722;BME280;6425;50.316;8.114;2023-12-07T02:03:00;994;;;1.6;95
12722;BME280;6425;50.316;8.114;2023-12-07T02:06:00;994;;;1.5;95.1
12722;BME280;6425;50.316;8.114;2023-12-07T02:09:00;994;;;1.7;94.6
12722;BME280;6425;50.316;8.114;2023-12-07T02:12:00;994;;;1.5;93.9
12722;BME280;6425;50.316;8.114;2023-12-07T02:15:00;994;;;1.1;95
12722;BME280;6425;50.316;8.114;2023-12-07T02:18:02;994;;;1.1;96.9
12722;BME280;6425;50.316;8.114;2023-12-07T02:21:01;994;;;1.4;97.7
12722;BME280;6425;50.316;8.114;2023-12-07T02:24:00;994;;;1.7;98
12722;BME280;6425;50.316;8.114;2023-12-07T02:27:00;994;;;1.9;97.7
12722;BME280;6425;50.316;8.114;2023-12-07T02:30:00;994;;;2;96.7
12722;BME280;6425;50.316;8.114;2023-12-07T02:33:00;994;;;2.1;96.4
12722;BME280;6425;50.316;8.114;2023-12-07T02:36:00;994;;;2.1;94.7
12722;BME280;6425;50.316;8.114;2023-12-07T02:39:00;994;;;1.5;95.4
12722;BME280;6425;50.316;8.114;2023-12-07T02:42:00;994;;;1.4;96.8
12722;BME280;6425;50.316;8.114;2023-12-07T02:45:00;994;;;1.6;97
12722;BME280;6425;50.316;8.114;2023-12-07T02:48:00;994;;;1.9;97.2
12722;BME280;6425;50.316;8.114;2023-12-07T02:51:00;994;;;2.2;96.5
12722;BME280;6425;50.316;8.114;2023-12-07T02:54:00;994;;;2.4;94.6
12722;BME280;6425;50.316;8.114;2023-12-07T02:57:00;994;;;2.4;93.3
12722;BME280;6425;50.316;8.114;2023-12-07T03:00:00;995;;;2.5;92.9
12722;BME280;6425;50.316;8.114;2023-12-07T03:03:00;995;;;2.6;92.7
12722;BME280;6425;50.316;8.114;2023-12-07T03:06:00;995;;;2.6;92.2
12722;BME280;6425;50.316;8.114;2023-12-07T03:09:00;995;;;2.5;91.9
12722;BME280;6425;50.316;8.114;2023-12-07T03:12:00;995;;;2.5;92.1
12722;BME280;6425;50.316;8.114;2023-12-07T03:15:00;994;;;2.5;92.4
12722;BME280;6425;50.316;8.114;2023-12-07T03:18:00;995;;;2.5;92.4
12722;BME280;6425;50.316;8.114;2023-12-07T03:21:01;995;;;2.5;92
12722;BME280;6425;50.316;8.114;2023-12-07T03:24:00;995;;;2;92
12722;BME280;6425;50.316;8.114;2023-12-07T03:27:00;995;;;1.6;93.9
12722;BME280;6425;50.316;8.114;2023-12-07T03:30:00;994;;;1.3;96
12722;BME280;6425;50.316;8.114;2023-12-07T03:33:00;995;;;1.1;97.8
12722;BME280;6425;50.316;8.114;2023-12-07T03:36:00;994;;;1.2;98.5
12722;BME280;6425;50.316;8.114;2023-12-07T03:39:00;994;;;0.9;99
12722;BME280;6425;50.316;8.114;2023-12-07T03:42:00;995;;;1.1;100
12722;BME280;6425;50.316;8.114;2023-12-07T03:45:00;994;;;1.6;100
12722;BME280;6425;50.316;8.114;2023-12-07T03:48:00;994;;;1.8;99
12722;BME280;6425;50.316;8.114;2023-12-07T03:51:00;994;;;2.2;98.4
12722;BME280;6425;50.316;8.114;2023-12-07T03:54:00;995;;;2.6;96.7
12722;BME280;6425;50.316;8.114;2023-12-07T03:57:00;995;;;2.7;94.7
12722;BME280;6425;50.316;8.114;2023-12-07T04:00:00;995;;;2.9;93.7
12722;BME280;6425;50.316;8.114;2023-12-07T04:03:00;995;;;3;91.8
12722;BME280;6425;50.316;8.114;2023-12-07T04:06:00;995;;;3;91.4
12722;BME280;6425;50.316;8.114;2023-12-07T04:09:00;995;;;3.2;90.6
12722;BME280;6425;50.316;8.114;2023-12-07T04:12:00;995;;;2.6;89.1
12722;BME280;6425;50.316;8.114;2023-12-07T04:15:00;995;;;2.2;91.1
12722;BME280;6425;50.316;8.114;2023-12-07T04:18:00;995;;;2.2;93.3
12722;BME280;6425;50.316;8.114;2023-12-07T04:21:00;995;;;2.1;93.8
12722;BME280;6425;50.316;8.114;2023-12-07T04:24:00;995;;;2;94.8
12722;BME280;6425;50.316;8.114;2023-12-07T04:27:00;995;;;1.9;95.7
12722;BME280;6425;50.316;8.114;2023-12-07T04:30:00;995;;;1.9;96.5
12722;BME280;6425;50.316;8.114;2023-12-07T04:33:00;995;;;2;96.8
12722;BME280;6425;50.316;8.114;2023-12-07T04:36:00;995;;;2.3;96.5
12722;BME280;6425;50.316;8.114;2023-12-07T04:39:00;995;;;2.4;96
12722;BME280;6425;50.316;8.114;2023-12-07T04:42:00;995;;;2.2;95
12722;BME280;6425;50.316;8.114;2023-12-07T04:45:00;995;;;1.9;95.4
12722;BME280;6425;50.316;8.114;2023-12-07T04:48:00;995;;;1.8;96.4
12722;BME280;6425;50.316;8.114;2023-12-07T04:51:00;995;;;1.6;97.2
12722;BME280;6425;50.316;8.114;2023-12-07T04:54:00;995;;;1.5;98.1
12722;BME280;6425;50.316;8.114;2023-12-07T04:57:00;995;;;1.4;99.2
12722;BME280;6425;50.316;8.114;2023-12-07T05:00:00;995;;;1.6;100
12722;BME280;6425;50.316;8.114;2023-12-07T05:03:00;995;;;1.8;99.8
12722;BME280;6425;50.316;8.114;2023-12-07T05:06:00;995;;;1.6;99
12722;BME280;6425;50.316;8.114;2023-12-07T05:09:00;995;;;1.6;99
12722;BME280;6425;50.316;8.114;2023-12-07T05:12:00;995;;;1.3;98.7
12722;BME280;6425;50.316;8.114;2023-12-07T05:15:00;995;;;1.2;99.2
12722;BME280;6425;50.316;8.114;2023-12-07T05:18:00;995;;;1.2;99.6
12722;BME280;6425;50.316;8.114;2023-12-07T05:21:00;995;;;1.3;100
12722;BME280;6425;50.316;8.114;2023-12-07T05:24:00;995;;;1.5;99.8
12722;BME280;6425;50.316;8.114;2023-12-07T05:27:00;995;;;1.4;98.2
12722;BME280;6425;50.316;8.114;2023-12-07T05:30:00;995;;;1.2;98
12722;BME280;6425;50.316;8.114;2023-12-07T05:33:00;995;;;0.9;98.4
12722;BME280;6425;50.316;8.114;2023-12-07T05:36:00;995;;;0.8;99.1
12722;BME280;6425;50.316;8.114;2023-12-07T05:39:00;995;;;0.8;99.9
12722;BME280;6425;50.316;8.114;2023-12-07T05:42:00;995;;;1;100
12722;BME280;6425;50.316;8.114;2023-12-07T05:45:00;995;;;1.4;99.8
12722;BME280;6425;50.316;8.114;2023-12-07T05:48:00;995;;;1.2;97.7
12722;BME280;6425;50.316;8.114;2023-12-07T05:51:01;995;;;1;97.6
12722;BME280;6425;50.316;8.114;2023-12-07T05:54:00;995;;;1;97.5
12722;BME280;6425;50.316;8.114;2023-12-07T05:57:00;995;;;1.2;97.6
12722;BME280;6425;50.316;8.114;2023-12-07T06:00:00;995;;;1.4;97
12722;BME280;6425;50.316;8.114;2023-12-07T06:03:00;995;;;1.4;95.7
12722;BME280;6425;50.316;8.114;2023-12-07T06:06:00;995;;;1.2;94.5
12722;BME280;6425;50.316;8.114;2023-12-07T06:09:00;995;;;1;94.2
12722;BME280;6425;50.316;8.114;2023-12-07T06:12:00;995;;;0.7;94.7
12722;BME280;6425;50.316;8.114;2023-12-07T06:15:00;995;;;0.7;95.6
12722;BME280;6425;50.316;8.114;2023-12-07T06:18:00;995;;;0.8;95.3
12722;BME280;6425;50.316;8.114;2023-12-07T06:21:00;995;;;0.6;95.3
12722;BME280;6425;50.316;8.114;2023-12-07T06:24:00;995;;;0.7;95.3
12722;BME280;6425;50.316;8.114;2023-12-07T06:27:00;995;;;0.7;94.6
12722;BME280;6425;50.316;8.114;2023-12-07T06:30:00;995;;;0.8;93.7
12722;BME280;6425;50.316;8.114;2023-12-07T06:33:00;995;;;0.8;93.1
12722;BME280;6425;50.316;8.114;2023-12-07T06:36:00;995;;;0.7;92.8
12722;BME280;6425;50.316;8.114;2023-12-07T06:39:00;995;;;0.7;93.2
12722;BME280;6425;50.316;8.114;2023-12-07T06:42:00;995;;;0.8;93.2
12722;BME280;6425;50.316;8.114;2023-12-07T06:45:01;995;;;0.8;93.4
12722;BME280;6425;50.316;8.114;2023-12-07T06:48:00;995;;;0.9;92.8
12722;BME280;6425;50.316;8.114;2023-12-07T06:51:00;995;;;0.9;92.7
12722;BME280;6425;50.316;8.114;2023-12-07T06:54:00;996;;;1;93.1
12722;BME280;6425;50.316;8.114;2023-12-07T06:57:00;995;;;0.7;93.6
12722;BME280;6425;50.316;8.114;2023-12-07T07:00:00;995;;;0.8;94.9
12722;BME280;6425;50.316;8.114;2023-12-07T07:03:00;995;;;1;96
12722;BME280;6425;50.316;8.114;2023-12-07T07:06:00;995;;;1.1;96.4
12722;BME280;6425;50.316;8.114;2023-12-07T07:09:00;995;;;1.2;97
12722;BME280;6425;50.316;8.114;2023-12-07T07:12:00;996;;;1;98.1
12722;BME280;6425;50.316;8.114;2023-12-07T07:15:00;996;;;1;99
12722;BME280;6425;50.316;8.114;2023-12-07T07:18:00;996;;;0.9;99.5
12722;BME280;6425;50.316;8.114;2023-12-07T07:21:00;996;;;0.7;100
12722;BME280;6425;50.316;8.114;2023-12-07T07:24:00;995;;;0.6;100
12722;BME280;6425;50.316;8.114;2023-12-07T07:27:00;995;;;0.3;100
12722;BME280;6425;50.316;8.114;2023-12-07T07:30:00;995;;;0.1;100
12722;BME280;6425;50.316;8.114;2023-12-07T07:33:00;995;;;0;100
12722;BME280;6425;50.316;8.114;2023-12-07T07:36:00;995;;;0.3;100
12722;BME280;6425;50.316;8.114;2023-12-07T07:39:00;995;;;0.5;100
12722;BME280;6425;50.316;8.114;2023-12-07T07:42:00;995;;;0.7;100
12722;BME280;6425;50.316;8.114;2023-12-07T07:45:00;995;;;0.9;100
12722;BME280;6425;50.316;8.114;2023-12-07T07:48:00;995;;;1.2;100
12722;BME280;6425;50.316;8.114;2023-12-07T07:51:00;995;;;1.3;100
12722;BME280;6425;50.316;8.114;2023-12-07T07:54:00;995;;;1.6;100
12722;BME280;6425;50.316;8.114;2023-12-07T07:57:00;995;;;1.7;99.5
12722;BME280;6425;50.316;8.114;2023-12-07T08:00:00;995;;;2.1;99
12722;BME280;6425;50.316;8.114;2023-12-07T08:03:00;995;;;2.5;96.9
12722;BME280;6425;50.316;8.114;2023-12-07T08:06:00;995;;;2.8;94.3
12722;BME280;6425;50.316;8.114;2023-12-07T08:09:00;995;;;2.6;91
12722;BME280;6425;50.316;8.114;2023-12-07T08:12:00;995;;;2;90.8
12722;BME280;6425;50.316;8.114;2023-12-07T08:15:00;995;;;1.9;93
12722;BME280;6425;50.316;8.114;2023-12-07T08:18:00;995;;;1.8;93.8
12722;BME280;6425;50.316;8.114;2023-12-07T08:21:00;995;;;1.6;94.9
12722;BME280;6425;50.316;8.114;2023-12-07T08:24:00;995;;;1.5;95.7
12722;BME280;6425;50.316;8.114;2023-12-07T08:27:00;995;;;1.5;95.9
12722;BME280;6425;50.316;8.114;2023-12-07T08:30:00;995;;;1.3;95.8
12722;BME280;6425;50.316;8.114;2023-12-07T08:33:00;995;;;1;96.9
12722;BME280;6425;50.316;8.114;2023-12-07T08:36:00;995;;;0.4;98.9
12722;BME280;6425;50.316;8.114;2023-12-07T08:39:00;995;;;0.4;100
12722;BME280;6425;50.316;8.114;2023-12-07T08:42:00;995;;;0.5;100
12722;BME280;6425;50.316;8.114;2023-12-07T08:45:00;995;;;0.6;100
12722;BME280;6425;50.316;8.114;2023-12-07T08:48:00;995;;;0.4;100
12722;BME280;6425;50.316;8.114;2023-12-07T08:51:00;995;;;0.6;100
12722;BME280;6425;50.316;8.114;2023-12-07T08:54:00;995;;;0.8;100
12722;BME280;6425;50.316;8.114;2023-12-07T08:57:00;995;;;0.8;100
12722;BME280;6425;50.316;8.114;2023-12-07T09:00:00;995;;;0.7;100
12722;BME280;6425;50.316;8.114;2023-12-07T09:03:00;995;;;0.5;100
12722;BME280;6425;50.316;8.114;2023-12-07T09:06:00;995;;;0.2;100
12722;BME280;6425;50.316;8.114;2023-12-07T09:09:00;995;;;0.1;100
12722;BME280;6425;50.316;8.114;2023-12-07T09:12:00;995;;;0.2;100
12722;BME280;6425;50.316;8.114;2023-12-07T09:15:00;995;;;0.3;100
12722;BME280;6425;50.316;8.114;2023-12-07T09:18:00;995;;;0.5;100
12722;BME280;6425;50.316;8.114;2023-12-07T09:21:00;995;;;0.3;100
12722;BME280;6425;50.316;8.114;2023-12-07T09:24:00;995;;;0.1;100
12722;BME280;6425;50.316;8.114;2023-12-07T09:27:00;995;;;0;100
12722;BME280;6425;50.316;8.114;2023-12-07T09:30:00;995;;;0;100
12722;BME280;6425;50.316;8.114;2023-12-07T09:33:00;995;;;0;100
12722;BME280;6425;50.316;8.114;2023-12-07T09:36:00;995;;;-0.3;100
12722;BME280;6425;50.316;8.114;2023-12-07T09:39:00;995;;;-0.2;100
12722;BME280;6425;50.316;8.114;2023-12-07T09:42:00;995;;;-0.2;100
12722;BME280;6425;50.316;8.114;2023-12-07T09:45:00;995;;;-0.2;100
12722;BME280;6425;50.316;8.114;2023-12-07T09:48:00;995;;;-0.4;100
12722;BME280;6425;50.316;8.114;2023-12-07T09:51:00;995;;;-0.4;100
12722;BME280;6425;50.316;8.114;2023-12-07T09:54:00;995;;;-0.2;100
12722;BME280;6425;50.316;8.114;2023-12-07T09:57:00;995;;;-0.4;100
12722;BME280;6425;50.316;8.114;2023-12-07T10:00:00;995;;;-0.3;100
12722;BME280;6425;50.316;8.114;2023-12-07T10:03:00;995;;;0.3;100
12722;BME280;6425;50.316;8.114;2023-12-07T10:06:00;995;;;0.7;100
12722;BME280;6425;50.316;8.114;2023-12-07T10:09:02;995;;;1.2;100
12722;BME280;6425;50.316;8.114;2023-12-07T10:12:03;995;;;1.5;100
12722;BME280;6425;50.316;8.114;2023-12-07T10:15:00;995;;;1.6;100
12722;BME280;6425;50.316;8.114;2023-12-07T10:18:00;995;;;1.2;100
12722;BME280;6425;50.316;8.114;2023-12-07T10:21:00;995;;;0.6;100
12722;BME280;6425;50.316;8.114;2023-12-07T10:24:00;995;;;0.3;100
12722;BME280;6425;50.316;8.114;2023-12-07T10:27:00;995;;;0.1;100
12722;BME280;6425;50.316;8.114;2023-12-07T10:30:00;995;;;0.4;100
12722;BME280;6425;50.316;8.114;2023-12-07T10:33:00;995;;;0.9;100
12722;BME280;6425;50.316;8.114;2023-12-07T10:36:02;995;;;0.8;100
12722;BME280;6425;50.316;8.114;2023-12-07T10:39:00;995;;;0.5;100
12722;BME280;6425;50.316;8.114;2023-12-07T10:42:00;995;;;0.9;100
12722;BME280;6425;50.316;8.114;2023-12-07T10:45:01;995;;;0.8;100
12722;BME280;6425;50.316;8.114;2023-12-07T10:48:00;995;;;0.7;100
12722;BME280;6425;50.316;8.114;2023-12-07T10:51:00;995;;;0.9;100
12722;BME280;6425;50.316;8.114;2023-12-07T10:54:00;995;;;1.2;100
12722;BME280;6425;50.316;8.114;2023-12-07T10:57:00;995;;;1.3;100
12722;BME280;6425;50.316;8.114;2023-12-07T11:00:00;995;;;1.6;100
12722;BME280;6425;50.316;8.114;2023-12-07T11:03:00;994;;;1.9;100
12722;BME280;6425;50.316;8.114;2023-12-07T11:06:00;995;;;1.9;99
12722;BME280;6425;50.316;8.114;2023-12-07T11:09:00;994;;;1.4;98.4
12722;BME280;6425;50.316;8.114;2023-12-07T11:12:01;994;;;1.3;99.9
12722;BME280;6425;50.316;8.114;2023-12-07T11:15:00;994;;;1.5;100
12722;BME280;6425;50.316;8.114;2023-12-07T11:18:01;994;;;1.2;99.7
12722;BME280;6425;50.316;8.114;2023-12-07T11:21:00;994;;;1.2;100
12722;BME280;6425;50.316;8.114;2023-12-07T11:24:00;994;;;1.1;100
12722;BME280;6425;50.316;8.114;2023-12-07T11:27:00;994;;;1.4;100
12722;BME280;6425;50.316;8.114;2023-12-07T11:30:00;994;;;1.5;99.7
12722;BME280;6425;50.316;8.114;2023-12-07T11:33:00;994;;;1.5;99.5
12722;BME280;6425;50.316;8.114;2023-12-07T11:36:03;994;;;1.5;100
12722;BME280;6425;50.316;8.114;2023-12-07T11:39:16;994;;;1.4;100
12722;BME280;6425;50.316;8.114;2023-12-07T11:42:02;994;;;1.3;100
12722;BME280;6425;50.316;8.114;2023-12-07T11:45:00;994;;;1;100
12722;BME280;6425;50.316;8.114;2023-12-07T11:48:08;994;;;1.3;100
12722;BME280;6425;50.316;8.114;2023-12-07T11:51:00;994;;;2.1;100
12722;BME280;6425;50.316;8.114;2023-12-07T11:54:00;994;;;2.1;100
12722;BME280;6425;50.316;8.114;2023-12-07T11:57:00;993;;;1.9;100
12722;BME280;6425;50.316;8.114;2023-12-07T12:00:00;993;;;1.9;100
12722;BME280;6425;50.316;8.114;2023-12-07T12:03:00;993;;;2;100
12722;BME280;6425;50.316;8.114;2023-12-07T12:06:01;993;;;2;100
12722;BME280;6425;50.316;8.114;2023-12-07T12:09:00;993;;;2.4;100
12722;BME280;6425;50.316;8.114;2023-12-07T12:12:00;993;;;2.7;100
12722;BME280;6425;50.316;8.114;2023-12-07T12:15:00;993;;;2.3;100
12722;BME280;6425;50.316;8.114;2023-12-07T12:18:00;993;;;1.7;100
12722;BME280;6425;50.316;8.114;2023-12-07T12:21:00;993;;;1.3;100
12722;BME280;6425;50.316;8.114;2023-12-07T12:24:00;993;;;1.6;100
12722;BME280;6425;50.316;8.114;2023-12-07T12:27:00;993;;;1.8;100
12722;BME280;6425;50.316;8.114;2023-12-07T12:30:00;993;;;1.3;100
12722;BME280;6425;50.316;8.114;2023-12-07T12:33:00;993;;;1;100
12722;BME280;6425;50.316;8.114;2023-12-07T12:36:01;993;;;1.4;100
12722;BME280;6425;50.316;8.114;2023-12-07T12:39:00;993;;;1.5;100
12722;BME280;6425;50.316;8.114;2023-12-07T12:42:00;993;;;1.1;100
12722;BME280;6425;50.316;8.114;2023-12-07T12:45:00;993;;;1.2;100
12722;BME280;6425;50.316;8.114;2023-12-07T12:48:00;993;;;1.3;100
12722;BME280;6425;50.316;8.114;2023-12-07T12:51:06;993;;;1.4;100
12722;BME280;6425;50.316;8.114;2023-12-07T12:54:00;993;;;1.5;100
12722;BME280;6425;50.316;8.114;2023-12-07T12:57:00;993;;;1.7;100
12722;BME280;6425;50.316;8.114;2023-12-07T13:00:00;993;;;1.7;100
12722;BME280;6425;50.316;8.114;2023-12-07T13:03:00;993;;;2;100
12722;BME280;6425;50.316;8.114;2023-12-07T13:06:00;993;;;2.5;100
12722;BME280;6425;50.316;8.114;2023-12-07T13:09:00;993;;;2.7;100
12722;BME280;6425;50.316;8.114;2023-12-07T13:12:00;993;;;2.5;100
12722;BME280;6425;50.316;8.114;2023-12-07T13:15:00;993;;;2.3;100
12722;BME280;6425;50.316;8.114;2023-12-07T13:18:00;993;;;2.6;100
12722;BME280;6425;50.316;8.114;2023-12-07T13:21:00;993;;;3;100
12722;BME280;6425;50.316;8.114;2023-12-07T13:24:00;993;;;3.1;97.9
12722;BME280;6425;50.316;8.114;2023-12-07T13:27:00;993;;;3.3;95.9
12722;BME280;6425;50.316;8.114;2023-12-07T13:30:00;993;;;3.2;94.1
12722;BME280;6425;50.316;8.114;2023-12-07T13:33:00;993;;;3.3;92.8
12722;BME280;6425;50.316;8.114;2023-12-07T13:36:00;993;;;3.5;92.9
12722;BME280;6425;50.316;8.114;2023-12-07T13:39:00;993;;;3.4;91.5
12722;BME280;6425;50.316;8.114;2023-12-07T13:42:00;993;;;2.9;92
12722;BME280;6425;50.316;8.114;2023-12-07T13:45:00;993;;;2.8;93.2
12722;BME280;6425;50.316;8.114;2023-12-07T13:48:00;993;;;3.1;93.2
12722;BME280;6425;50.316;8.114;2023-12-07T13:51:00;993;;;3.1;92.4
12722;BME280;6425;50.316;8.114;2023-12-07T13:54:00;993;;;3.1;91.5
12722;BME280;6425;50.316;8.114;2023-12-07T13:57:00;993;;;3;92
12722;BME280;6425;50.316;8.114;2023-12-07T14:00:00;992;;;3.2;91.9
12722;BME280;6425;50.316;8.114;2023-12-07T14:03:00;992;;;3.4;91.6
12722;BME280;6425;50.316;8.114;2023-12-07T14:06:00;992;;;3.6;90.7
12722;BME280;6425;50.316;8.114;2023-12-07T14:09:00;992;;;3.2;89.3
12722;BME280;6425;50.316;8.114;2023-12-07T14:12:00;992;;;3.3;90.8
12722;BME280;6425;50.316;8.114;2023-12-07T14:15:00;992;;;3.4;90.3
12722;BME280;6425;50.316;8.114;2023-12-07T14:18:00;992;;;3;88.7
12722;BME280;6425;50.316;8.114;2023-12-07T14:21:00;992;;;2.4;89.3
12722;BME280;6425;50.316;8.114;2023-12-07T14:24:00;992;;;2.6;89.8
12722;BME280;6425;50.316;8.114;2023-12-07T14:27:00;992;;;2.6;88.7
12722;BME280;6425;50.316;8.114;2023-12-07T14:30:00;992;;;2.3;89.2
12722;BME280;6425;50.316;8.114;2023-12-07T14:33:00;992;;;1.9;89.9
12722;BME280;6425;50.316;8.114;2023-12-07T14:36:00;992;;;2;91.2
12722;BME280;6425;50.316;8.114;2023-12-07T14:39:00;992;;;1.8;91.9
12722;BME280;6425;50.316;8.114;2023-12-07T14:42:00;992;;;1.9;92.7
12722;BME280;6425;50.316;8.114;2023-12-07T14:45:00;992;;;2.2;92.5
12722;BME280;6425;50.316;8.114;2023-12-07T14:48:00;992;;;2.4;91.4
12722;BME280;6425;50.316;8.114;2023-12-07T14:51:00;992;;;1.9;90.9
12722;BME280;6425;50.316;8.114;2023-12-07T14:54:00;992;;;1.1;94.5
12722;BME280;6425;50.316;8.114;2023-12-07T14:57:00;992;;;0.6;97.8
12722;BME280;6425;50.316;8.114;2023-12-07T15:00:00;992;;;0.3;100
12722;BME280;6425;50.316;8.114;2023-12-07T15:03:00;992;;;0.3;100
12722;BME280;6425;50.316;8.114;2023-12-07T15:06:00;992;;;0.2;100
12722;BME280;6425;50.316;8.114;2023-12-07T15:09:00;992;;;0;100
12722;BME280;6425;50.316;8.114;2023-12-07T15:12:00;992;;;0.1;100
12722;BME280;6425;50.316;8.114;2023-12-07T15:15:00;992;;;0.1;100
12722;BME280;6425;50.316;8.114;2023-12-07T15:18:00;992;;;0.1;100
12722;BME280;6425;50.316;8.114;2023-12-07T15:21:00;992;;;0.2;100
12722;BME280;6425;50.316;8.114;2023-12-07T15:24:00;991;;;0.1;100
12722;BME280;6425;50.316;8.114;2023-12-07T15:27:00;991;;;-0.1;100
12722;BME280;6425;50.316;8.114;2023-12-07T15:30:00;991;;;-0.1;100
12722;BME280;6425;50.316;8.114;2023-12-07T15:33:00;991;;;0;100
12722;BME280;6425;50.316;8.114;2023-12-07T15:36:02;991;;;0.1;100
12722;BME280;6425;50.316;8.114;2023-12-07T15:39:00;991;;;0.2;100
12722;BME280;6425;50.316;8.114;2023-12-07T15:42:00;991;;;0.1;100
12722;BME280;6425;50.316;8.114;2023-12-07T15:45:00;991;;;0.2;100
12722;BME280;6425;50.316;8.114;2023-12-07T15:48:00;991;;;0.2;100
12722;BME280;6425;50.316;8.114;2023-12-07T15:51:00;991;;;0.3;100
12722;BME280;6425;50.316;8.114;2023-12-07T15:54:00;991;;;0.3;100
12722;BME280;6425;50.316;8.114;2023-12-07T15:57:00;991;;;0.3;100
12722;BME280;6425;50.316;8.114;2023-12-07T16:00:00;991;;;0.4;100
12722;BME280;6425;50.316;8.114;2023-12-07T16:03:00;991;;;0.3;100
12722;BME280;6425;50.316;8.114;2023-12-07T16:06:00;991;;;0.2;100
12722;BME280;6425;50.316;8.114;2023-12-07T16:09:00;991;;;0.2;100
12722;BME280;6425;50.316;8.114;2023-12-07T16:12:00;991;;;0.2;100
12722;BME280;6425;50.316;8.114;2023-12-07T16:15:00;991;;;0.3;100
12722;BME280;6425;50.316;8.114;2023-12-07T16:18:00;991;;;0.4;100
12722;BME280;6425;50.316;8.114;2023-12-07T16:21:00;991;;;0.4;100
12722;BME280;6425;50.316;8.114;2023-12-07T16:24:00;991;;;0.5;100
12722;BME280;6425;50.316;8.114;2023-12-07T16:27:00;991;;;0.7;100
12722;BME280;6425;50.316;8.114;2023-12-07T16:30:00;991;;;0.8;100
12722;BME280;6425;50.316;8.114;2023-12-07T16:33:00;991;;;0.9;100
12722;BME280;6425;50.316;8.114;2023-12-07T16:36:00;991;;;0.9;100
12722;BME280;6425;50.316;8.114;2023-12-07T16:39:00;991;;;0.8;100
12722;BME280;6425;50.316;8.114;2023-12-07T16:42:00;991;;;0.9;100
12722;BME280;6425;50.316;8.114;2023-12-07T16:45:00;991;;;1;99.7
12722;BME280;6425;50.316;8.114;2023-12-07T16:48:00;991;;;1;99
12722;BME280;6425;50.316;8.114;2023-12-07T16:51:00;991;;;0.9;98.9
12722;BME280;6425;50.316;8.114;2023-12-07T16:54:00;991;;;1;99
12722;BME280;6425;50.316;8.114;2023-12-07T16:57:00;991;;;1;98.3
12722;BME280;6425;50.316;8.114;2023-12-07T17:00:00;991;;;0.9;98.3
12722;BME280;6425;50.316;8.114;2023-12-07T17:03:00;991;;;1.1;98.1
12722;BME280;6425;50.316;8.114;2023-12-07T17:06:00;991;;;1.2;96.9
12722;BME280;6425;50.316;8.114;2023-12-07T17:09:00;990;;;0.8;96.9
12722;BME280;6425;50.316;8.114;2023-12-07T17:12:00;990;;;0.7;97.9
12722;BME280;6425;50.316;8.114;2023-12-07T17:15:00;990;;;0.7;98.1
12722;BME280;6425;50.316;8.114;2023-12-07T17:18:00;990;;;0.7;98.7
12722;BME280;6425;50.316;8.114;2023-12-07T17:21:00;990;;;0.7;99.2
12722;BME280;6425;50.316;8.114;2023-12-07T17:24:00;990;;;0.7;98.8
12722;BME280;6425;50.316;8.114;2023-12-07T17:27:00;990;;;0.7;99.3
12722;BME280;6425;50.316;8.114;2023-12-07T17:30:00;990;;;0.8;99
12722;BME280;6425;50.316;8.114;2023-12-07T17:33:00;990;;;0.6;98.9
12722;BME280;6425;50.316;8.114;2023-12-07T17:36:00;990;;;0.3;99.8
12722;BME280;6425;50.316;8.114;2023-12-07T17:39:00;990;;;0.3;100
12722;BME280;6425;50.316;8.114;2023-12-07T17:42:00;990;;;0.3;100
12722;BME280;6425;50.316;8.114;2023-12-07T17:45:00;990;;;0.4;100
12722;BME280;6425;50.316;8.114;2023-12-07T17:48:00;990;;;0.6;100
12722;BME280;6425;50.316;8.114;2023-12-07T17:51:00;990;;;0.6;100
12722;BME280;6425;50.316;8.114;2023-12-07T17:54:00;990;;;0.4;100
12722;BME280;6425;50.316;8.114;2023-12-07T17:57:00;990;;;0.3;100
12722;BME280;6425;50.316;8.114;2023-12-07T18:00:00;990;;;0.3;100
12722;BME280;6425;50.316;8.114;2023-12-07T18:03:00;990;;;0.3;100
12722;BME280;6425;50.316;8.114;2023-12-07T18:06:00;990;;;0.3;100
12722;BME280;6425;50.316;8.114;2023-12-07T18:09:00;990;;;0.3;100
12722;BME280;6425;50.316;8.114;2023-12-07T18:12:00;990;;;0.4;100
12722;BME280;6425;50.316;8.114;2023-12-07T18:15:00;990;;;0.3;100